Time;durP1;ratioP1;P1;durP2;ratioP2;P2;SDS_P1;SDS_P2;PMS_P1;PMS_P2;Temp;Humidity;BMP_temperature;BMP_pressure;BME280_temperature;BME280_humidity;BME280_pressure;Samples;Min_cycle;Max_cycle;Signal;HPM_P1;HPM_P2
2021/09/14 00:00:09;;;;;;;4.43;1.20;;;15.70;87.30;;;;;;4829604;29;20134;-77
2021/09/14 00:02:38;;;;;;;3.67;1.38;;;15.70;87.30;;;;;;4852545;29;20049;-76
2021/09/14 00:05:06;;;;;;;2.40;1.10;;;15.60;87.30;;;;;;4858935;29;20052;-76
2021/09/14 00:07:33;;;;;;;2.53;0.95;;;15.60;87.40;;;;;;4858203;29;20089;-76
2021/09/14 00:10:00;;;;;;;2.88;1.17;;;15.60;87.40;;;;;;4858824;29;20521;-76
2021/09/14 00:12:27;;;;;;;4.95;1.38;;;15.60;87.50;;;;;;4844180;29;20052;-75
2021/09/14 00:14:57;;;;;;;2.47;1.00;;;15.60;87.50;;;;;;4873611;29;20037;-76
2021/09/14 00:17:25;;;;;;;3.60;1.17;;;15.60;87.50;;;;;;4829769;29;20061;-75
2021/09/14 00:19:52;;;;;;;2.17;0.93;;;15.50;87.50;;;;;;4871096;29;20389;-76
2021/09/14 00:22:19;;;;;;;2.58;1.05;;;15.50;87.60;;;;;;4858502;29;20112;-76
2021/09/14 00:24:46;;;;;;;2.50;1.23;;;15.50;87.70;;;;;;4844033;29;20398;-76
2021/09/14 00:27:13;;;;;;;2.38;0.98;;;15.50;87.70;;;;;;4845333;29;20497;-76
2021/09/14 00:29:40;;;;;;;6.63;1.50;;;15.50;87.80;;;;;;4844931;29;20132;-76
2021/09/14 00:32:07;;;;;;;2.85;0.95;;;15.50;87.80;;;;;;4858278;29;20049;-76
2021/09/14 00:34:34;;;;;;;2.85;1.27;;;15.40;87.80;;;;;;4843128;29;20079;-76
2021/09/14 00:37:01;;;;;;;2.95;1.40;;;15.40;87.80;;;;;;4873092;29;20479;-76
2021/09/14 00:39:28;;;;;;;3.83;1.50;;;15.40;87.90;;;;;;4839425;29;20097;-76
2021/09/14 00:41:55;;;;;;;2.17;1.00;;;15.40;87.90;;;;;;4853624;29;20041;-76
2021/09/14 00:44:22;;;;;;;2.33;1.05;;;15.40;88.00;;;;;;4840242;29;20097;-76
2021/09/14 00:46:49;;;;;;;3.45;0.98;;;15.40;88.00;;;;;;4844504;29;20109;-76
2021/09/14 00:49:16;;;;;;;2.72;1.00;;;15.40;88.10;;;;;;4827503;29;20048;-76
2021/09/14 00:51:43;;;;;;;2.33;1.00;;;15.40;88.10;;;;;;4874416;29;20056;-76
2021/09/14 00:54:15;;;;;;;3.00;1.10;;;15.30;88.10;;;;;;4856104;29;20403;-76
2021/09/14 00:56:42;;;;;;;1.88;0.80;;;15.30;88.10;;;;;;4873431;29;20089;-76
2021/09/14 00:59:10;;;;;;;3.42;1.10;;;15.30;88.20;;;;;;4843092;29;20068;-75
2021/09/14 01:01:37;;;;;;;2.50;1.02;;;15.30;88.30;;;;;;4831905;29;20071;-76
2021/09/14 01:04:05;;;;;;;3.50;1.20;;;15.20;88.30;;;;;;4855827;29;20496;-76
2021/09/14 01:06:33;;;;;;;2.17;0.93;;;15.20;88.30;;;;;;4857007;29;20409;-76
2021/09/14 01:09:01;;;;;;;3.47;1.00;;;15.20;88.40;;;;;;4874468;29;20128;-76
2021/09/14 01:11:29;;;;;;;2.50;1.00;;;15.20;88.40;;;;;;4843778;29;20044;-76
2021/09/14 01:14:04;;;;;;;2.78;0.90;;;15.20;88.40;;;;;;4871509;29;20049;-76
2021/09/14 01:16:36;;;;;;;2.85;1.30;;;15.20;88.30;;;;;;4873978;29;20059;-76
2021/09/14 01:19:09;;;;;;;3.53;1.40;;;15.20;88.40;;;;;;4869803;29;20049;-76
2021/09/14 01:21:36;;;;;;;;;;;15.20;88.40;;;;;;4848911;29;20104;-76
2021/09/14 01:24:03;;;;;;;4.68;0.90;;;15.20;88.30;;;;;;4874100;29;19982;-77
2021/09/14 01:26:37;;;;;;;3.30;1.00;;;15.10;88.30;;;;;;4844680;29;20106;-76
2021/09/14 01:29:10;;;;;;;3.00;1.20;;;15.20;88.30;;;;;;4828132;29;20056;-76
2021/09/14 01:31:40;;;;;;;1.88;0.80;;;15.20;88.30;;;;;;4863439;29;20065;-76
2021/09/14 01:34:08;;;;;;;3.15;1.20;;;15.20;88.30;;;;;;4827051;29;20123;-76
2021/09/14 01:36:40;;;;;;;4.57;1.42;;;15.20;88.30;;;;;;4836523;29;20505;-76
2021/09/14 01:39:07;;;;;;;2.25;0.88;;;15.20;88.30;;;;;;4844012;29;20057;-76
2021/09/14 01:41:36;;;;;;;2.42;0.98;;;15.20;88.40;;;;;;4840218;29;20497;-76
2021/09/14 01:44:04;;;;;;;2.53;1.15;;;15.20;88.30;;;;;;4855481;29;20048;-76
2021/09/14 01:46:33;;;;;;;2.50;1.02;;;15.10;88.30;;;;;;4851166;29;20076;-76
2021/09/14 01:49:02;;;;;;;3.55;1.48;;;15.10;88.30;;;;;;4866328;29;20078;-76
2021/09/14 01:51:29;;;;;;;2.95;1.10;;;15.10;88.40;;;;;;4848672;29;20089;-76
2021/09/14 01:53:56;;;;;;;2.88;0.80;;;15.10;88.40;;;;;;4877302;29;20041;-76
2021/09/14 01:56:25;;;;;;;3.72;0.93;;;15.10;88.40;;;;;;4850532;29;20085;-76
2021/09/14 01:58:53;;;;;;;3.45;1.30;;;15.10;88.40;;;;;;4861148;29;20052;-76
2021/09/14 02:01:29;;;;;;;3.58;1.17;;;15.10;88.50;;;;;;4844180;29;20048;-77
2021/09/14 02:04:02;;;;;;;3.38;1.27;;;15.10;88.50;;;;;;4832257;29;20045;-76
2021/09/14 02:42:59;;;;;;;3.42;1.10;;;14.80;88.90;;;;;;4845401;29;20045;-77
2021/09/14 02:56:16;;;;;;;2.47;1.02;;;14.80;88.90;;;;;;4875977;29;20041;-76
2021/09/14 02:58:37;;;;;;;2.90;1.08;;;14.70;89.10;;;;;;4875951;29;22143;-76
2021/09/14 02:59:47;;;;;;;3.13;1.02;;;14.70;89.10;;;;;;4860682;29;20045;-77
2021/09/14 03:02:14;;;;;;;3.10;1.38;;;14.70;89.10;;;;;;4829391;29;20474;-77
2021/09/14 03:04:41;;;;;;;2.13;1.10;;;14.70;89.20;;;;;;4845267;29;20505;-76
2021/09/14 03:07:08;;;;;;;3.17;1.35;;;14.60;89.20;;;;;;4845466;29;20136;-77
2021/09/14 03:09:38;;;;;;;3.55;1.33;;;14.60;89.20;;;;;;4846687;29;20383;-77
2021/09/14 03:12:07;;;;;;;4.07;1.38;;;14.60;89.30;;;;;;4845325;29;20179;-76
2021/09/14 03:14:37;;;;;;;5.70;1.77;;;14.60;89.30;;;;;;4876629;29;20096;-77
2021/09/14 03:17:04;;;;;;;6.30;1.83;;;14.60;89.30;;;;;;4869064;29;20045;-76
2021/09/14 03:19:31;;;;;;;3.28;1.67;;;14.60;89.30;;;;;;4829851;29;20899;-77
2021/09/14 03:22:00;;;;;;;2.88;1.25;;;14.60;89.80;;;;;;4828353;29;20509;-76
2021/09/14 03:24:27;;;;;;;3.95;1.35;;;14.60;89.40;;;;;;4842129;29;20093;-76
2021/09/14 03:26:57;;;;;;;3.42;1.40;;;14.60;89.40;;;;;;4859234;29;20041;-76
2021/09/14 03:29:24;;;;;;;3.53;1.70;;;14.60;90.00;;;;;;4844596;29;20049;-76
2021/09/14 03:31:51;;;;;;;3.45;1.40;;;14.50;89.40;;;;;;4875467;29;20052;-76
2021/09/14 03:34:19;;;;;;;3.75;1.70;;;14.50;89.40;;;;;;4857037;29;20055;-76
2021/09/14 03:36:49;;;;;;;3.55;1.65;;;14.50;89.40;;;;;;4833013;29;20049;-76
2021/09/14 03:39:16;;;;;;;4.75;1.33;;;14.50;89.50;;;;;;4843818;29;20541;-76
2021/09/14 03:41:44;;;;;;;3.28;1.52;;;14.50;89.50;;;;;;4845343;29;20049;-76
2021/09/14 03:44:14;;;;;;;3.83;1.58;;;14.50;89.50;;;;;;4846151;29;20494;-76
2021/09/14 03:46:41;;;;;;;4.05;1.75;;;14.50;89.50;;;;;;4873399;29;20058;-76
2021/09/14 03:49:08;;;;;;;3.90;1.85;;;14.50;89.50;;;;;;4834293;29;20049;-76
2021/09/14 03:51:39;;;;;;;3.13;1.55;;;14.50;89.50;;;;;;4840319;29;21891;-76
2021/09/14 03:54:06;;;;;;;4.40;1.70;;;14.40;89.50;;;;;;4839025;29;20095;-76
2021/09/14 03:56:33;;;;;;;4.55;1.70;;;14.40;89.50;;;;;;4854128;29;20052;-76
2021/09/14 03:59:02;;;;;;;3.55;1.73;;;14.50;89.60;;;;;;4817066;29;20053;-76
2021/09/14 04:01:36;;;;;;;3.92;1.90;;;14.40;90.00;;;;;;4843248;29;20049;-76
2021/09/14 04:04:21;;;;;;;3.70;1.77;;;14.40;89.60;;;;;;4829411;29;20072;-76
2021/09/14 04:06:59;;;;;;;3.08;1.48;;;14.40;89.60;;;;;;4827114;29;20993;-76
2021/09/14 04:09:27;;;;;;;3.50;1.63;;;14.40;89.70;;;;;;4855185;29;20045;-76
2021/09/14 04:12:01;;;;;;;3.45;1.30;;;14.40;89.70;;;;;;4858276;29;20056;-76
2021/09/14 04:14:32;;;;;;;3.45;1.48;;;14.30;89.80;;;;;;4853597;29;20084;-76
2021/09/14 04:17:00;;;;;;;4.40;2.30;;;14.30;89.80;;;;;;4825617;29;20144;-76
2021/09/14 04:19:27;;;;;;;3.95;1.60;;;14.30;89.80;;;;;;4849627;29;20048;-76
2021/09/14 04:21:56;;;;;;;3.78;1.75;;;14.30;89.80;;;;;;4829519;29;20056;-75
2021/09/14 04:24:29;;;;;;;4.13;1.58;;;14.30;89.80;;;;;;4837790;29;20070;-76
2021/09/14 04:26:56;;;;;;;4.68;2.05;;;14.30;89.90;;;;;;4833782;29;20575;-76
2021/09/14 04:29:23;;;;;;;3.42;1.55;;;14.30;89.90;;;;;;4842346;29;20133;-76
2021/09/14 04:31:50;;;;;;;4.22;1.85;;;14.30;90.00;;;;;;4853639;29;20045;-76
2021/09/14 04:34:18;;;;;;;4.47;2.08;;;14.20;90.00;;;;;;4805222;29;20114;-76
2021/09/14 04:36:47;;;;;;;4.18;1.52;;;14.20;90.00;;;;;;4827681;29;20045;-77
2021/09/14 04:39:14;;;;;;;3.90;1.63;;;14.20;90.00;;;;;;4825724;29;20064;-77
2021/09/14 04:41:46;;;;;;;4.00;1.70;;;14.20;90.00;;;;;;4846506;29;20052;-77
2021/09/14 04:44:13;;;;;;;4.75;1.92;;;14.20;90.00;;;;;;4825060;29;20090;-77
2021/09/14 04:46:41;;;;;;;3.72;1.83;;;14.20;90.00;;;;;;4838039;29;20109;-77
2021/09/14 04:49:08;;;;;;;5.30;2.10;;;14.20;90.00;;;;;;4850359;29;20502;-76
2021/09/14 04:51:39;;;;;;;4.55;2.45;;;14.20;90.00;;;;;;4848783;29;20501;-77
2021/09/14 04:54:06;;;;;;;4.38;2.13;;;14.20;90.10;;;;;;4832020;29;20443;-77
2021/09/14 04:56:33;;;;;;;4.00;2.00;;;14.10;90.00;;;;;;4825056;29;20049;-77
2021/09/14 04:59:00;;;;;;;4.35;2.10;;;14.10;90.00;;;;;;4828168;29;20114;-77
2021/09/14 05:01:28;;;;;;;4.47;1.90;;;14.10;90.10;;;;;;4825945;29;20045;-77
2021/09/14 05:03:55;;;;;;;4.65;1.77;;;14.10;90.10;;;;;;4838943;29;20037;-77
2021/09/14 05:06:25;;;;;;;4.53;1.58;;;14.10;90.10;;;;;;4825024;29;20045;-78
2021/09/14 05:08:54;;;;;;;3.50;1.77;;;14.10;90.10;;;;;;4825646;29;20060;-77
2021/09/14 05:11:21;;;;;;;3.90;1.70;;;14.10;90.10;;;;;;4825628;29;20246;-81
2021/09/14 05:13:49;;;;;;;4.30;1.80;;;14.10;90.10;;;;;;4847347;29;20516;-80
2021/09/14 05:16:16;;;;;;;4.00;1.85;;;14.00;90.10;;;;;;4824157;29;20054;-80
2021/09/14 05:19:09;;;;;;;4.07;1.77;;;14.00;90.10;;;;;;4817768;29;20053;-79
2021/09/14 05:21:48;;;;;;;5.07;1.70;;;14.00;90.10;;;;;;4848362;29;20406;-81
2021/09/14 05:24:15;;;;;;;3.75;1.67;;;14.00;90.10;;;;;;4837161;29;20561;-76
2021/09/14 05:26:42;;;;;;;4.20;1.60;;;14.00;90.10;;;;;;4840103;29;20041;-78
2021/09/14 05:29:31;;;;;;;3.38;1.77;;;14.00;90.20;;;;;;4853893;29;20053;-77
2021/09/14 05:31:58;;;;;;;3.28;1.52;;;14.00;90.10;;;;;;4838988;29;20114;-75
2021/09/14 05:34:25;;;;;;;3.65;1.90;;;14.00;90.20;;;;;;4823131;29;20125;-75
2021/09/14 05:36:53;;;;;;;4.20;1.75;;;14.00;90.10;;;;;;4838847;29;20057;-75
2021/09/14 05:39:21;;;;;;;4.40;1.63;;;14.00;90.10;;;;;;4852542;29;20103;-76
2021/09/14 05:41:49;;;;;;;5.05;2.05;;;14.10;90.10;;;;;;4820840;29;20069;-79
2021/09/14 05:44:16;;;;;;;5.90;2.22;;;14.10;90.10;;;;;;4832122;29;20141;-83
2021/09/14 05:46:44;;;;;;;3.58;1.70;;;14.20;90.10;;;;;;4817976;29;20102;-82
2021/09/14 05:49:12;;;;;;;4.80;1.55;;;14.20;90.00;;;;;;4840295;29;20081;-82
2021/09/14 05:51:39;;;;;;;5.60;2.17;;;14.20;90.00;;;;;;4831474;29;20085;-82
2021/09/14 05:54:07;;;;;;;5.13;2.30;;;14.30;90.00;;;;;;4832960;29;20110;-82
2021/09/14 05:56:36;;;;;;;3.90;2.22;;;14.30;90.00;;;;;;4829224;29;20499;-83
2021/09/14 05:59:08;;;;;;;5.20;2.33;;;14.40;89.90;;;;;;4827502;29;20159;-83
2021/09/14 06:01:36;;;;;;;6.50;2.67;;;14.40;90.00;;;;;;4832453;29;20097;-83
2021/09/14 06:04:04;;;;;;;4.38;1.73;;;14.50;89.80;;;;;;4840709;29;20050;-78
2021/09/14 06:06:34;;;;;;;5.35;2.63;;;14.50;89.60;;;;;;4851900;29;20056;-79
2021/09/14 06:09:02;;;;;;;6.25;2.72;;;14.60;89.60;;;;;;4851293;29;20468;-79
2021/09/14 06:11:32;;;;;;;4.38;2.38;;;14.70;89.50;;;;;;4834572;29;20061;-78
2021/09/14 06:14:02;;;;;;;5.07;2.80;;;14.70;89.30;;;;;;4856947;29;20521;-79
2021/09/14 06:16:30;;;;;;;4.65;2.58;;;14.80;89.20;;;;;;4841965;29;20068;-79
2021/09/14 06:18:58;;;;;;;4.40;2.33;;;14.90;89.00;;;;;;4839941;29;20046;-77
2021/09/14 06:21:32;;;;;;;5.65;2.95;;;15.00;88.90;;;;;;4866901;29;20103;-76
2021/09/14 06:24:00;;;;;;;5.38;3.17;;;15.10;88.70;;;;;;4850905;29;20514;-77
2021/09/14 06:26:27;;;;;;;5.97;3.10;;;15.20;88.60;;;;;;4843909;29;20099;-77
2021/09/14 06:28:59;;;;;;;5.22;2.30;;;15.30;88.50;;;;;;4858804;29;20072;-80
2021/09/14 06:31:26;;;;;;;5.60;3.03;;;15.40;88.40;;;;;;4816178;29;20050;-80
2021/09/14 06:33:53;;;;;;;6.28;3.20;;;15.40;88.20;;;;;;4843838;29;20072;-79
2021/09/14 06:36:21;;;;;;;5.85;2.67;;;15.50;88.10;;;;;;4844281;29;20119;-79
2021/09/14 06:38:48;;;;;;;7.20;3.28;;;15.50;88.00;;;;;;4846558;29;20051;-79
2021/09/14 06:41:16;;;;;;;4.65;2.65;;;15.60;88.00;;;;;;4849506;29;20048;-78
2021/09/14 06:43:45;;;;;;;6.82;3.25;;;15.60;87.90;;;;;;4862283;29;20133;-77
2021/09/14 06:46:14;;;;;;;5.55;2.58;;;15.70;87.90;;;;;;4845834;29;20056;-78
2021/09/14 06:48:47;;;;;;;4.75;2.42;;;15.70;87.80;;;;;;4841299;29;20136;-78
2021/09/14 06:51:15;;;;;;;5.40;3.03;;;15.70;87.80;;;;;;4845962;29;20145;-78
2021/09/14 06:53:42;;;;;;;6.88;3.10;;;15.80;87.70;;;;;;4844717;29;20486;-79
2021/09/14 06:56:09;;;;;;;5.65;3.35;;;15.80;87.70;;;;;;4829249;29;20053;-79
2021/09/14 06:58:40;;;;;;;6.75;3.40;;;15.80;87.60;;;;;;4845273;29;20049;-79
2021/09/14 07:01:07;;;;;;;4.75;2.45;;;15.80;87.60;;;;;;4827278;29;20057;-79
2021/09/14 07:03:35;;;;;;;5.50;3.03;;;15.80;87.60;;;;;;4817201;29;20042;-78
2021/09/14 07:06:02;;;;;;;5.70;2.80;;;15.80;87.50;;;;;;4830015;29;20052;-77
2021/09/14 07:08:29;;;;;;;6.45;2.92;;;15.90;87.50;;;;;;4826597;29;20051;-76
2021/09/14 07:10:56;;;;;;;6.32;3.63;;;15.90;87.40;;;;;;4859958;29;20068;-80
2021/09/14 07:13:23;;;;;;;5.10;2.72;;;15.90;87.30;;;;;;4845253;29;20109;-79
2021/09/14 07:15:50;;;;;;;6.05;3.47;;;15.90;87.30;;;;;;4829910;29;20073;-78
2021/09/14 07:18:17;;;;;;;6.13;3.53;;;16.00;87.30;;;;;;4821484;29;20073;-79
2021/09/14 07:20:44;;;;;;;6.70;3.55;;;15.90;87.30;;;;;;4816113;29;20046;-78
2021/09/14 07:23:11;;;;;;;6.40;3.35;;;16.00;87.40;;;;;;4837220;29;20045;-77
2021/09/14 07:25:42;;;;;;;5.30;2.92;;;16.00;87.40;;;;;;4839361;29;20050;-78
2021/09/14 07:28:09;;;;;;;6.72;3.13;;;16.00;87.30;;;;;;4815848;29;20132;-78
2021/09/14 07:30:37;;;;;;;7.22;3.20;;;16.00;87.30;;;;;;4845804;29;20114;-77
2021/09/14 07:33:05;;;;;;;5.40;3.30;;;16.10;87.20;;;;;;4838398;29;20049;-78
2021/09/14 07:35:32;;;;;;;5.88;3.05;;;16.10;87.10;;;;;;4850185;29;20052;-78
2021/09/14 07:38:00;;;;;;;4.70;2.60;;;16.10;87.10;;;;;;4860460;29;20575;-78
2021/09/14 07:40:27;;;;;;;4.53;2.58;;;16.10;87.00;;;;;;4862613;29;20056;-78
2021/09/14 07:42:55;;;;;;;6.72;3.72;;;16.10;87.00;;;;;;4874486;29;20055;-78
2021/09/14 07:45:22;;;;;;;6.75;3.53;;;16.20;86.80;;;;;;4864933;29;20073;-78
2021/09/14 07:47:49;;;;;;;6.60;3.80;;;16.30;86.60;;;;;;4844887;29;20061;-78
2021/09/14 07:50:16;;;;;;;5.22;2.92;;;16.20;86.50;;;;;;4827176;29;20042;-78
2021/09/14 07:52:43;;;;;;;7.75;3.25;;;16.30;86.60;;;;;;4819400;29;20117;-77
2021/09/14 07:55:10;;;;;;;5.68;3.15;;;16.30;87.10;;;;;;4811372;29;20050;-77
2021/09/14 07:57:37;;;;;;;6.18;3.53;;;16.40;87.10;;;;;;4810756;29;20098;-77
2021/09/14 08:00:05;;;;;;;5.63;3.22;;;16.50;86.40;;;;;;4807836;29;20081;-77
2021/09/14 08:02:38;;;;;;;8.18;4.05;;;16.50;86.20;;;;;;4828402;29;20080;-77
2021/09/14 08:05:06;;;;;;;5.50;3.38;;;16.60;86.20;;;;;;4820070;29;20050;-76
2021/09/14 08:07:33;;;;;;;6.25;2.97;;;16.60;86.10;;;;;;4825325;29;20053;-76
2021/09/14 08:10:00;;;;;;;8.80;3.83;;;16.60;86.10;;;;;;4820986;29;20046;-76
2021/09/14 08:12:27;;;;;;;5.88;3.47;;;16.70;86.00;;;;;;4823519;29;20046;-76
2021/09/14 08:14:54;;;;;;;5.65;3.22;;;16.70;86.00;;;;;;4840827;29;20045;-76
2021/09/14 08:17:21;;;;;;;5.90;3.53;;;16.70;85.90;;;;;;4812923;29;20434;-77
2021/09/14 08:19:48;;;;;;;6.40;4.10;;;16.70;85.90;;;;;;4825951;29;20073;-76
2021/09/14 08:22:17;;;;;;;5.40;3.20;;;16.70;85.80;;;;;;4810943;29;20491;-76
2021/09/14 08:24:46;;;;;;;8.70;3.90;;;16.80;85.90;;;;;;4841157;29;20483;-76
2021/09/14 08:27:15;;;;;;;6.07;3.40;;;16.80;85.80;;;;;;4825737;29;20141;-76
2021/09/14 08:29:42;;;;;;;4.50;2.88;;;16.90;85.80;;;;;;4827618;29;20030;-76
2021/09/14 08:32:09;;;;;;;5.57;3.25;;;16.90;85.80;;;;;;4813479;29;20377;-76
2021/09/14 08:34:36;;;;;;;7.50;3.53;;;16.90;85.70;;;;;;4848971;29;20497;-76
2021/09/14 08:37:03;;;;;;;5.57;2.88;;;16.90;85.70;;;;;;4816199;29;20110;-76
2021/09/14 08:39:30;;;;;;;6.78;3.47;;;17.00;85.70;;;;;;4845197;29;20046;-76
2021/09/14 08:41:57;;;;;;;4.43;2.42;;;17.10;85.60;;;;;;4828397;29;20078;-76
2021/09/14 08:44:24;;;;;;;6.65;4.32;;;17.20;85.60;;;;;;4823373;29;20480;-76
2021/09/14 08:46:51;;;;;;;4.60;2.88;;;17.20;85.40;;;;;;4843028;29;20128;-76
2021/09/14 08:49:18;;;;;;;6.57;4.07;;;17.20;85.30;;;;;;4842744;29;20050;-76
2021/09/14 08:51:45;;;;;;;5.85;3.80;;;17.30;85.30;;;;;;4842489;29;20106;-76
2021/09/14 08:54:13;;;;;;;4.55;2.60;;;17.30;85.30;;;;;;4843927;29;20046;-76
2021/09/14 08:56:40;;;;;;;5.22;2.72;;;17.40;85.20;;;;;;4860249;29;20050;-76
2021/09/14 08:59:07;;;;;;;5.90;3.92;;;17.50;85.20;;;;;;4858623;29;20462;-76
2021/09/14 09:01:34;;;;;;;5.25;3.35;;;17.60;85.00;;;;;;4858576;29;20506;-76
2021/09/14 09:04:07;;;;;;;5.55;3.58;;;17.60;84.90;;;;;;4795960;29;20048;-76
2021/09/14 09:06:38;;;;;;;5.00;2.78;;;17.70;84.80;;;;;;4849003;29;20144;-76
2021/09/14 09:09:10;;;;;;;5.18;3.08;;;17.80;84.70;;;;;;4810318;29;20046;-76
2021/09/14 09:11:37;;;;;;;4.38;2.30;;;17.90;84.60;;;;;;4840303;29;20053;-76
2021/09/14 09:14:05;;;;;;;3.78;2.08;;;18.00;84.50;;;;;;4840436;29;20087;-76
2021/09/14 09:16:32;;;;;;;4.10;2.20;;;18.10;84.40;;;;;;4842071;29;20049;-76
2021/09/14 09:19:02;;;;;;;3.22;2.03;;;18.20;84.30;;;;;;4827570;29;20113;-77
2021/09/14 09:21:39;;;;;;;4.60;2.22;;;18.30;84.10;;;;;;4858995;29;20098;-85
2021/09/14 09:24:12;;;;;;;4.70;2.97;;;18.40;84.00;;;;;;4845234;29;20041;-83
2021/09/14 09:26:44;;;;;;;5.22;3.13;;;18.50;83.90;;;;;;4849263;29;20045;-83
2021/09/14 09:29:20;;;;;;;6.10;3.47;;;18.50;83.90;;;;;;4830361;29;20061;-84
2021/09/14 09:31:49;;;;;;;5.65;3.33;;;18.60;83.80;;;;;;4846626;29;20099;-83
2021/09/14 09:34:23;;;;;;;4.43;2.65;;;18.60;83.60;;;;;;4854239;29;20049;-84
2021/09/14 09:36:58;;;;;;;5.47;3.22;;;18.80;83.60;;;;;;4843533;29;20519;-81
2021/09/14 09:39:35;;;;;;;4.35;2.38;;;19.00;83.40;;;;;;4843866;29;20049;-86
2021/09/14 09:42:06;;;;;;;4.85;2.58;;;19.20;83.10;;;;;;4830019;29;20056;-87
2021/09/14 09:44:37;;;;;;;5.07;3.17;;;19.30;82.90;;;;;;4860236;29;20053;-82
2021/09/14 09:47:04;;;;;;;3.95;2.38;;;19.40;82.60;;;;;;4849258;29;20375;-82
2021/09/14 09:49:33;;;;;;;7.22;3.47;;;19.50;82.50;;;;;;4840718;29;20049;-83
2021/09/14 09:52:01;;;;;;;9.65;4.93;;;19.60;82.30;;;;;;4830245;29;20049;-83
2021/09/14 09:55:05;;;;;;;5.57;3.35;;;19.70;82.00;;;;;;4826456;29;20057;-82
2021/09/14 09:57:33;;;;;;;4.95;2.85;;;19.90;81.60;;;;;;4853757;29;20050;-78
2021/09/14 10:00:00;;;;;;;5.40;3.63;;;19.90;81.60;;;;;;4845484;29;20045;-79
2021/09/14 10:02:45;;;;;;;4.22;2.80;;;20.00;81.60;;;;;;4843413;29;20057;-82
2021/09/14 10:05:14;;;;;;;3.95;2.47;;;20.10;82.10;;;;;;4836561;29;20169;-83
2021/09/14 10:07:45;;;;;;;4.05;2.25;;;20.20;81.40;;;;;;4830941;29;20097;-78
2021/09/14 10:10:12;;;;;;;4.68;2.55;;;20.20;81.20;;;;;;4863297;29;20045;-77
2021/09/14 10:12:39;;;;;;;4.95;3.15;;;20.30;81.20;;;;;;4845063;29;20057;-79
2021/09/14 10:15:12;;;;;;;4.18;2.65;;;20.40;81.00;;;;;;4845252;29;20045;-82
2021/09/14 10:17:55;;;;;;;5.65;2.95;;;20.50;80.90;;;;;;4850707;29;20502;-84
2021/09/14 10:20:25;;;;;;;5.60;3.30;;;20.60;80.60;;;;;;4830898;29;20049;-83
2021/09/14 10:23:06;;;;;;;6.10;2.85;;;20.70;80.50;;;;;;4832072;29;20052;-82
2021/09/14 10:25:37;;;;;;;4.78;2.55;;;20.80;80.20;;;;;;4828800;29;20065;-83
2021/09/14 10:28:10;;;;;;;4.10;2.30;;;20.80;80.30;;;;;;4829900;29;20486;-86
2021/09/14 10:30:38;;;;;;;4.38;2.95;;;20.90;80.10;;;;;;4860535;29;20044;-81
2021/09/14 10:33:05;;;;;;;4.30;2.63;;;20.90;80.10;;;;;;4831276;29;20054;-85
2021/09/14 10:35:42;;;;;;;6.25;3.50;;;20.90;80.10;;;;;;4846231;29;20042;-85
2021/09/14 10:38:11;;;;;;;5.60;3.95;;;20.90;80.00;;;;;;4845307;29;20498;-83
2021/09/14 10:41:03;;;;;;;5.80;3.60;;;20.90;79.90;;;;;;4861771;29;20097;-88
2021/09/14 10:43:32;;;;;;;4.30;2.58;;;20.90;79.80;;;;;;4830137;29;20125;-90
2021/09/14 10:46:01;;;;;;;4.32;2.78;;;20.90;80.00;;;;;;4845904;29;20517;-82
2021/09/14 10:48:29;;;;;;;4.55;2.70;;;21.00;79.90;;;;;;4824541;29;20140;-81
2021/09/14 10:51:14;;;;;;;6.55;3.60;;;21.10;79.60;;;;;;4832308;29;20042;-79
2021/09/14 10:53:53;;;;;;;5.53;2.88;;;21.20;79.30;;;;;;4826234;29;20098;-82
2021/09/14 10:56:20;;;;;;;5.03;2.60;;;21.10;79.30;;;;;;4825616;29;20042;-81
2021/09/14 10:58:48;;;;;;;6.57;3.22;;;21.10;79.40;;;;;;4813954;29;20145;-80
2021/09/14 11:01:22;;;;;;;4.82;3.20;;;21.20;79.40;;;;;;4811920;29;20144;-79
2021/09/14 11:04:04;;;;;;;5.32;3.20;;;21.10;79.30;;;;;;4826598;29;20066;-78
2021/09/14 11:06:31;;;;;;;4.07;2.70;;;21.20;79.30;;;;;;4839178;29;20496;-78
2021/09/14 11:09:04;;;;;;;3.80;2.53;;;21.20;79.30;;;;;;4825620;29;20042;-79
2021/09/14 11:11:31;;;;;;;4.15;2.35;;;21.20;79.30;;;;;;4839999;29;20045;-79
2021/09/14 11:13:59;;;;;;;4.03;2.20;;;21.20;79.40;;;;;;4821365;29;20046;-80
2021/09/14 11:16:26;;;;;;;3.88;2.05;;;21.20;79.40;;;;;;4822950;29;20456;-80
2021/09/14 11:18:58;;;;;;;3.85;2.55;;;21.20;79.40;;;;;;4813516;29;20058;-79
2021/09/14 11:21:26;;;;;;;3.55;2.40;;;21.30;79.40;;;;;;4823391;29;20050;-78
2021/09/14 11:23:53;;;;;;;3.25;1.95;;;21.20;79.40;;;;;;4795549;29;20061;-79
2021/09/14 11:26:21;;;;;;;3.70;2.38;;;21.30;79.30;;;;;;4809461;29;20074;-79
2021/09/14 11:28:59;;;;;;;3.05;2.10;;;21.30;79.20;;;;;;4813708;29;20097;-78
2021/09/14 11:31:31;;;;;;;4.90;3.13;;;21.30;79.10;;;;;;4835620;29;20054;-79
2021/09/14 11:33:59;;;;;;;5.25;3.53;;;21.40;79.20;;;;;;4843425;29;20110;-78
2021/09/14 11:36:26;;;;;;;5.15;3.20;;;21.30;79.10;;;;;;4841186;29;20073;-76
2021/09/14 11:38:59;;;;;;;4.30;2.30;;;21.30;79.20;;;;;;4837824;29;20078;-75
2021/09/14 11:41:37;;;;;;;5.32;3.08;;;21.40;79.20;;;;;;4840141;29;20054;-77
2021/09/14 11:44:06;;;;;;;6.18;3.95;;;21.40;79.00;;;;;;4822964;29;20092;-77
2021/09/14 11:46:47;;;;;;;4.10;2.78;;;21.50;79.00;;;;;;4831141;29;20141;-77
2021/09/14 11:49:14;;;;;;;4.63;2.65;;;21.60;78.70;;;;;;4853649;29;20061;-77
2021/09/14 11:51:41;;;;;;;5.32;2.88;;;21.70;78.70;;;;;;4856482;29;20042;-76
2021/09/14 11:54:13;;;;;;;4.57;3.10;;;21.80;78.40;;;;;;4837877;29;20410;-76
2021/09/14 11:56:40;;;;;;;5.78;3.65;;;21.90;78.20;;;;;;4856567;29;20060;-75
2021/09/14 11:59:15;;;;;;;5.03;3.15;;;21.90;78.10;;;;;;4825138;29;20463;-76
2021/09/14 12:01:44;;;;;;;4.40;2.35;;;22.00;78.00;;;;;;4844246;29;20048;-80
2021/09/14 12:04:16;;;;;;;4.15;2.10;;;22.10;78.00;;;;;;4838360;29;20042;-76
2021/09/14 12:06:50;;;;;;;4.03;2.50;;;22.20;77.90;;;;;;4843815;29;20046;-75
2021/09/14 12:09:18;;;;;;;4.82;2.58;;;22.30;77.70;;;;;;4855376;29;20775;-75
2021/09/14 12:11:46;;;;;;;5.68;2.83;;;22.30;77.70;;;;;;4834256;29;20043;-75
2021/09/14 12:14:19;;;;;;;3.65;2.40;;;22.40;77.50;;;;;;4853764;29;20512;-75
2021/09/14 12:16:52;;;;;;;4.32;2.70;;;22.40;77.20;;;;;;4841494;29;20056;-77
2021/09/14 12:19:19;;;;;;;6.63;3.40;;;22.50;77.20;;;;;;4842399;29;20810;-75
2021/09/14 12:21:46;;;;;;;4.78;2.85;;;22.50;76.70;;;;;;4840957;29;20082;-76
2021/09/14 12:24:13;;;;;;;4.22;3.10;;;22.60;76.60;;;;;;4825666;29;20053;-75
2021/09/14 12:26:41;;;;;;;4.10;2.95;;;22.60;76.20;;;;;;4843027;29;20045;-75
2021/09/14 12:29:10;;;;;;;4.20;2.50;;;22.80;76.10;;;;;;4853616;29;20077;-75
2021/09/14 12:31:39;;;;;;;3.10;2.17;;;22.80;75.90;;;;;;4832091;29;20045;-77
2021/09/14 12:34:06;;;;;;;3.83;2.00;;;22.90;75.90;;;;;;4823485;29;20101;-80
2021/09/14 12:36:33;;;;;;;3.40;1.95;;;23.00;75.80;;;;;;4861078;29;20041;-80
2021/09/14 12:39:00;;;;;;;3.58;2.10;;;23.10;75.60;;;;;;4844405;29;20054;-79
2021/09/14 12:41:27;;;;;;;2.88;1.83;;;23.10;75.50;;;;;;4863350;29;20132;-79
2021/09/14 12:43:54;;;;;;;2.78;1.40;;;23.20;75.40;;;;;;4827012;29;20077;-79
2021/09/14 12:46:21;;;;;;;2.67;1.65;;;23.30;75.30;;;;;;4865064;29;20057;-79
2021/09/14 12:48:48;;;;;;;2.70;1.30;;;23.40;75.10;;;;;;4828700;29;20134;-77
2021/09/14 12:51:15;;;;;;;3.97;2.50;;;23.40;74.90;;;;;;4825196;29;20061;-77
2021/09/14 12:53:43;;;;;;;5.07;2.20;;;23.50;74.70;;;;;;4839309;29;20054;-77
2021/09/14 12:56:10;;;;;;;2.67;1.73;;;23.50;74.60;;;;;;4837292;29;20043;-78
2021/09/14 12:58:49;;;;;;;2.60;1.63;;;23.60;74.60;;;;;;4825468;29;20042;-79
2021/09/14 13:01:16;;;;;;;3.17;2.20;;;23.70;74.50;;;;;;4822103;29;20112;-77
2021/09/14 13:03:44;;;;;;;2.90;1.67;;;23.70;74.20;;;;;;4824653;29;20078;-77
2021/09/14 13:06:12;;;;;;;3.42;1.98;;;23.80;74.10;;;;;;4806943;29;20160;-78
2021/09/14 13:08:39;;;;;;;3.05;1.70;;;23.90;74.00;;;;;;4838296;29;20046;-79
2021/09/14 13:11:07;;;;;;;3.38;2.20;;;23.90;73.90;;;;;;4839455;29;20452;-77
2021/09/14 13:16:19;;;;;;;2.75;1.60;;;23.90;73.90;;;;;;4839185;29;20041;-78
2021/09/14 13:18:49;;;;;;;2.72;1.70;;;23.80;73.80;;;;;;4808412;29;20106;-79
2021/09/14 13:21:18;;;;;;;2.83;1.50;;;23.80;73.80;;;;;;4825467;29;20066;-80
2021/09/14 13:23:49;;;;;;;2.63;1.60;;;23.80;74.50;;;;;;4809782;29;20046;-78
2021/09/14 13:26:17;;;;;;;2.05;1.38;;;23.80;74.00;;;;;;4839106;29;20061;-78
2021/09/14 13:28:44;;;;;;;2.88;1.75;;;23.80;74.10;;;;;;4809517;29;20145;-77
2021/09/14 13:31:11;;;;;;;3.03;1.45;;;23.70;74.00;;;;;;4839201;29;20429;-79
2021/09/14 13:33:38;;;;;;;3.10;1.75;;;23.80;74.10;;;;;;4829256;29;20110;-77
2021/09/14 13:36:06;;;;;;;2.88;1.50;;;23.80;74.10;;;;;;4823799;29;20061;-78
2021/09/14 13:38:33;;;;;;;2.53;1.30;;;23.70;74.10;;;;;;4794082;29;20054;-77
2021/09/14 13:41:05;;;;;;;2.17;1.02;;;23.70;74.20;;;;;;4792339;29;20050;-76
2021/09/14 13:43:38;;;;;;;1.83;1.15;;;23.70;74.30;;;;;;4825000;29;20042;-77
2021/09/14 13:46:13;;;;;;;2.47;1.25;;;23.70;74.40;;;;;;4809887;29;20384;-77